Time;durP1;ratioP1;P1;durP2;ratioP2;P2;SDS_P1;SDS_P2;PMS_P1;PMS_P2;Temp;Humidity;BMP_temperature;BMP_pressure;BME280_temperature;BME280_humidity;BME280_pressure;Samples;Min_cycle;Max_cycle;Signal;HPM_P1;HPM_P2
2021/11/19 00:00:30;;;;;;;;;;;16.10;99.90;;;;;;5073641;28;1073;-57
2021/11/19 00:02:57;;;;;;;;;;;16.00;99.90;;;;;;5076161;28;984;-53
2021/11/19 00:05:24;;;;;;;;;;;16.00;99.90;;;;;;5040719;28;1064;-52
2021/11/19 00:07:51;;;;;;;;;;;16.00;99.90;;;;;;5076216;28;915;-53
2021/11/19 00:10:18;;;;;;;;;;;15.90;99.90;;;;;;5076462;28;845;-53
2021/11/19 00:12:46;;;;;;;;;;;15.90;99.90;;;;;;5076067;28;860;-53
2021/11/19 00:15:12;;;;;;;;;;;15.90;99.90;;;;;;5058265;28;1074;-53
2021/11/19 00:17:38;;;;;;;;;;;15.80;99.90;;;;;;5074447;28;1898;-53
2021/11/19 00:20:06;;;;;;;;;;;15.80;99.90;;;;;;5075983;28;804;-52
2021/11/19 00:22:33;;;;;;;;;;;15.80;99.90;;;;;;5076126;28;765;-52
2021/11/19 00:25:00;;;;;;;;;;;15.80;99.90;;;;;;5023333;28;1070;-52
2021/11/19 00:27:26;;;;;;;;;;;15.80;99.90;;;;;;5075900;28;1397;-52
2021/11/19 00:29:53;;;;;;;;;;;15.80;99.90;;;;;;5076232;28;788;-52
2021/11/19 00:32:19;;;;;;;;;;;15.80;99.90;;;;;;5057966;28;948;-52
2021/11/19 00:34:45;;;;;;;;;;;15.70;99.90;;;;;;5076013;28;833;-57
2021/11/19 00:37:11;;;;;;;;;;;15.70;99.90;;;;;;5057772;28;1964;-59
2021/11/19 00:39:37;;;;;;;;;;;15.70;99.90;;;;;;5075010;28;930;-57
2021/11/19 00:42:07;;;;;;;;;;;15.60;99.90;;;;;;5075447;28;790;-57
2021/11/19 00:44:33;;;;;;;;;;;15.60;99.90;;;;;;5040843;28;950;-57
2021/11/19 00:47:00;;;;;;;;;;;15.60;99.90;;;;;;5074865;28;980;-57
2021/11/19 00:49:30;;;;;;;;;;;15.60;99.90;;;;;;5074618;28;814;-57
2021/11/19 00:51:58;;;;;;;;;;;15.60;99.90;;;;;;5074895;28;809;-57
2021/11/19 00:54:24;;;;;;;;;;;15.50;99.90;;;;;;5075764;28;1126;-59
2021/11/19 00:56:56;;;;;;;;;;;15.50;99.90;;;;;;5075561;28;1953;-57
2021/11/19 00:59:22;;;;;;;;;;;15.50;99.90;;;;;;5058030;28;1363;-57
2021/11/19 01:01:57;;;;;;;;;;;15.50;99.90;;;;;;5075516;28;894;-57
2021/11/19 01:04:23;;;;;;;;;;;15.50;99.90;;;;;;5075681;28;865;-58
2021/11/19 01:06:51;;;;;;;;;;;15.50;99.90;;;;;;5075430;28;865;-57
2021/11/19 01:09:22;;;;;;;;;;;15.50;99.90;;;;;;5075607;28;898;-57
2021/11/19 01:11:51;;;;;;;;;;;15.50;99.90;;;;;;5075807;28;897;-57
2021/11/19 01:14:37;;;;;;;;;;;15.40;99.90;;;;;;5075781;28;774;-58
2021/11/19 01:17:08;;;;;;;;;;;15.40;99.90;;;;;;5074932;28;1959;-57
2021/11/19 01:19:37;;;;;;;;;;;15.40;99.90;;;;;;5074516;28;1366;-58
2021/11/19 01:22:07;;;;;;;;;;;15.40;99.90;;;;;;5074711;28;832;-58
2021/11/19 01:24:36;;;;;;;;;;;15.40;99.90;;;;;;5075542;28;916;-57
2021/11/19 01:27:04;;;;;;;;;;;15.30;99.90;;;;;;5071803;28;1132;-58
2021/11/19 01:29:31;;;;;;;;;;;15.30;99.90;;;;;;5075517;28;956;-57
2021/11/19 01:32:00;;;;;;;;;;;15.30;99.90;;;;;;5074895;28;967;-58
2021/11/19 01:34:27;;;;;;;;;;;15.30;99.90;;;;;;5074535;28;1377;-57
2021/11/19 01:36:53;;;;;;;;;;;15.30;99.90;;;;;;5072842;28;1903;-58
2021/11/19 01:39:22;;;;;;;;;;;15.30;99.90;;;;;;5078029;28;769;-57
2021/11/19 01:41:50;;;;;;;;;;;15.30;99.90;;;;;;5077369;28;833;-57
2021/11/19 01:44:19;;;;;;;;;;;15.30;99.90;;;;;;5074247;28;888;-58
2021/11/19 01:46:48;;;;;;;;;;;15.30;99.90;;;;;;5075634;28;1250;-57
2021/11/19 01:49:14;;;;;;;;;;;15.20;99.90;;;;;;5077837;28;972;-58
2021/11/19 01:51:59;;;;;;;;;;;15.20;99.90;;;;;;5076540;28;862;-57
2021/11/19 01:54:44;;;;;;;;;;;15.20;99.90;;;;;;5075905;28;778;-58
2021/11/19 01:57:14;;;;;;;;;;;15.20;99.90;;;;;;5073310;28;1953;-57
2021/11/19 01:59:44;;;;;;;;;;;15.10;99.90;;;;;;5040648;28;915;-58
2021/11/19 02:02:16;;;;;;;;;;;15.10;99.90;;;;;;5059090;28;1398;-57
2021/11/19 02:05:03;;;;;;;;;;;15.10;99.90;;;;;;5078568;28;793;-58
2021/11/19 02:07:44;;;;;;;;;;;15.20;99.90;;;;;;5055806;28;928;-57
2021/11/19 02:10:34;;;;;;;;;;;15.10;99.90;;;;;;5078527;28;900;-58
2021/11/19 02:13:04;;;;;;;;;;;15.10;99.90;;;;;;5023202;28;1036;-57
2021/11/19 02:15:33;;;;;;;;;;;15.10;99.90;;;;;;5078450;28;805;-57
2021/11/19 02:18:07;;;;;;;;;;;15.10;99.90;;;;;;5041345;28;1890;-57
2021/11/19 02:20:35;;;;;;;;;;;15.10;99.90;;;;;;5060052;28;1222;-57
2021/11/19 02:23:07;;;;;;;;;;;15.10;99.90;;;;;;5060519;28;1099;-57
2021/11/19 02:25:44;;;;;;;;;;;15.10;99.90;;;;;;5043600;28;1328;-57
2021/11/19 02:28:17;;;;;;;;;;;15.10;99.90;;;;;;5060782;28;899;-52
2021/11/19 02:30:47;;;;;;;;;;;15.10;99.90;;;;;;5078150;28;974;-52
2021/11/19 02:33:15;;;;;;;;;;;15.10;99.90;;;;;;5078246;28;858;-52
2021/11/19 02:36:04;;;;;;;;;;;15.10;99.90;;;;;;5060341;28;1488;-52
2021/11/19 02:38:40;;;;;;;;;;;15.10;99.90;;;;;;5078251;28;1965;-52
2021/11/19 02:41:06;;;;;;;;;;;15.00;99.90;;;;;;5060132;28;960;-57
2021/11/19 02:47:08;;;;;;;;;;;15.00;99.90;;;;;;5061307;22;1898;-57
2021/11/19 02:49:34;;;;;;;;;;;15.00;99.90;;;;;;5056746;28;1037;-57
2021/11/19 02:52:00;;;;;;;;;;;15.00;99.90;;;;;;5057771;28;1026;-57
2021/11/19 02:54:28;;;;;;;;;;;15.00;99.90;;;;;;5057072;28;1112;-57
2021/11/19 02:56:54;;;;;;;;;;;15.00;99.90;;;;;;5057712;28;1898;-57
2021/11/19 02:59:20;;;;;;;;;;;15.00;99.90;;;;;;5057837;28;851;-57
2021/11/19 03:01:49;;;;;;;;;;;15.00;99.90;;;;;;5057944;28;793;-58
2021/11/19 03:04:17;;;;;;;;;;;15.00;99.90;;;;;;5057204;28;966;-57
2021/11/19 03:06:45;;;;;;;;;;;15.00;99.90;;;;;;5057782;28;924;-58
2021/11/19 03:09:11;;;;;;;;;;;14.90;99.90;;;;;;5057943;28;897;-57
2021/11/19 03:11:38;;;;;;;;;;;14.90;99.90;;;;;;5057629;28;840;-57
2021/11/19 03:14:04;;;;;;;;;;;14.90;99.90;;;;;;5040109;28;958;-57
2021/11/19 03:16:31;;;;;;;;;;;14.90;99.90;;;;;;5059835;28;833;-57
2021/11/19 03:18:57;;;;;;;;;;;14.90;99.90;;;;;;5055603;28;1902;-57
2021/11/19 03:21:24;;;;;;;;;;;14.90;99.90;;;;;;5059862;28;896;-58
2021/11/19 03:23:50;;;;;;;;;;;14.90;99.90;;;;;;5058441;28;888;-58
2021/11/19 03:26:17;;;;;;;;;;;14.90;99.90;;;;;;5059362;28;908;-58
2021/11/19 03:28:44;;;;;;;;;;;14.90;99.90;;;;;;5041127;28;919;-57
2021/11/19 03:31:13;;;;;;;;;;;14.90;99.90;;;;;;5058795;28;1130;-57
2021/11/19 03:33:40;;;;;;;;;;;14.90;99.90;;;;;;5058099;28;902;-57
2021/11/19 03:36:08;;;;;;;;;;;14.90;99.90;;;;;;5056312;28;898;-57
2021/11/19 03:38:36;;;;;;;;;;;14.90;99.90;;;;;;5057036;28;1964;-57
2021/11/19 03:41:03;;;;;;;;;;;14.90;99.90;;;;;;5056884;28;972;-57
2021/11/19 03:43:31;;;;;;;;;;;14.90;99.90;;;;;;5056853;28;1151;-57
2021/11/19 03:45:59;;;;;;;;;;;14.80;99.90;;;;;;5036011;28;1295;-57
2021/11/19 03:48:26;;;;;;;;;;;14.80;99.90;;;;;;5056310;28;1064;-57
2021/11/19 03:50:55;;;;;;;;;;;14.80;99.90;;;;;;5056647;28;876;-57
2021/11/19 03:53:22;;;;;;;;;;;14.80;99.90;;;;;;5022370;28;858;-57
2021/11/19 03:55:49;;;;;;;;;;;14.80;99.90;;;;;;5055904;28;932;-57
2021/11/19 03:58:17;;;;;;;;;;;14.80;99.90;;;;;;5055783;28;1965;-57
2021/11/19 04:00:46;;;;;;;;;;;14.80;99.90;;;;;;5055807;28;830;-57
2021/11/19 04:03:15;;;;;;;;;;;14.80;99.90;;;;;;5056708;28;864;-57
2021/11/19 04:05:42;;;;;;;;;;;14.80;99.90;;;;;;5056639;28;886;-57
2021/11/19 04:08:12;;;;;;;;;;;14.80;99.90;;;;;;5056595;28;960;-57
2021/11/19 04:10:39;;;;;;;;;;;14.70;99.90;;;;;;5056373;28;896;-57
2021/11/19 04:13:06;;;;;;;;;;;14.70;99.90;;;;;;5056271;28;841;-57
2021/11/19 04:15:35;;;;;;;;;;;14.70;99.90;;;;;;5055363;28;1033;-57
2021/11/19 04:18:02;;;;;;;;;;;14.70;99.90;;;;;;5056338;28;1957;-57
2021/11/19 04:20:28;;;;;;;;;;;14.70;99.90;;;;;;5056127;28;833;-57
2021/11/19 04:22:54;;;;;;;;;;;14.70;99.90;;;;;;5056122;28;801;-57
2021/11/19 04:25:21;;;;;;;;;;;14.70;99.90;;;;;;5055877;28;869;-57
2021/11/19 04:27:48;;;;;;;;;;;14.70;99.90;;;;;;5056005;28;1025;-57
2021/11/19 04:30:16;;;;;;;;;;;14.70;99.90;;;;;;5056193;28;1152;-57
2021/11/19 04:32:42;;;;;;;;;;;14.70;99.90;;;;;;5055286;28;875;-57
2021/11/19 04:35:08;;;;;;;;;;;14.70;99.90;;;;;;5056159;28;829;-57
2021/11/19 04:37:34;;;;;;;;;;;14.60;99.90;;;;;;5055858;28;1894;-57
2021/11/19 04:40:00;;;;;;;;;;;14.70;99.90;;;;;;5056114;28;899;-57
2021/11/19 04:42:26;;;;;;;;;;;14.60;99.90;;;;;;5055744;28;1184;-57
2021/11/19 04:44:53;;;;;;;;;;;14.60;99.90;;;;;;5056062;28;768;-57
2021/11/19 04:47:19;;;;;;;;;;;14.60;99.90;;;;;;5053487;28;1203;-57
2021/11/19 04:49:45;;;;;;;;;;;14.60;99.90;;;;;;5055781;28;798;-57
2021/11/19 04:52:12;;;;;;;;;;;14.60;99.90;;;;;;5037869;28;982;-57
2021/11/19 04:54:38;;;;;;;;;;;14.60;99.90;;;;;;5021277;28;1011;-57
2021/11/19 04:57:04;;;;;;;;;;;14.60;99.90;;;;;;5055673;28;1906;-58
2021/11/19 04:59:31;;;;;;;;;;;14.60;99.90;;;;;;5055810;28;1692;-57
2021/11/19 05:01:59;;;;;;;;;;;14.60;99.90;;;;;;5055335;28;940;-57
2021/11/19 05:04:24;;;;;;;;;;;14.60;99.90;;;;;;5037755;28;811;-57
2021/11/19 05:06:50;;;;;;;;;;;14.60;99.90;;;;;;5055619;28;901;-57
2021/11/19 05:09:17;;;;;;;;;;;14.60;99.90;;;;;;5054956;28;886;-57
2021/11/19 05:11:48;;;;;;;;;;;14.60;99.90;;;;;;5055019;28;936;-57
2021/11/19 05:14:15;;;;;;;;;;;14.60;99.90;;;;;;5050675;28;856;-57
2021/11/19 05:16:42;;;;;;;;;;;14.60;99.90;;;;;;5055249;28;842;-58
2021/11/19 05:19:08;;;;;;;;;;;14.60;99.90;;;;;;5055643;28;1914;-57
2021/11/19 05:21:35;;;;;;;;;;;14.60;99.90;;;;;;5055446;28;861;-57
2021/11/19 05:24:01;;;;;;;;;;;14.60;99.90;;;;;;5055742;28;782;-57
2021/11/19 05:26:30;;;;;;;;;;;14.60;99.90;;;;;;5055704;28;792;-57
2021/11/19 05:28:57;;;;;;;;;;;14.60;99.90;;;;;;5050541;28;981;-52
2021/11/19 05:31:25;;;;;;;;;;;14.50;99.90;;;;;;5055373;28;869;-52
2021/11/19 05:33:51;;;;;;;;;;;14.60;99.90;;;;;;5055589;28;935;-52
2021/11/19 05:36:17;;;;;;;;;;;14.50;99.90;;;;;;5056437;28;832;-52
2021/11/19 05:38:44;;;;;;;;;;;14.50;99.90;;;;;;5058446;28;1906;-52
2021/11/19 05:41:11;;;;;;;;;;;14.50;99.90;;;;;;5052091;28;1030;-52
2021/11/19 05:43:38;;;;;;;;;;;14.50;99.90;;;;;;5058659;28;1010;-52
2021/11/19 05:46:05;;;;;;;;;;;14.50;99.90;;;;;;5058709;28;1027;-52
2021/11/19 05:48:31;;;;;;;;;;;14.60;99.90;;;;;;5058889;28;935;-52
2021/11/19 05:50:57;;;;;;;;;;;14.60;99.90;;;;;;5058799;28;844;-52
2021/11/19 05:53:25;;;;;;;;;;;14.60;99.90;;;;;;5055660;28;1233;-52
2021/11/19 05:55:51;;;;;;;;;;;14.50;99.90;;;;;;5059057;28;857;-52
2021/11/19 05:58:19;;;;;;;;;;;14.60;99.90;;;;;;5057976;28;1983;-52
2021/11/19 06:00:47;;;;;;;;;;;14.60;99.90;;;;;;5058151;28;1198;-52
2021/11/19 06:03:13;;;;;;;;;;;14.60;99.90;;;;;;5058552;28;866;-52
2021/11/19 06:05:39;;;;;;;;;;;14.60;99.90;;;;;;5040394;28;1014;-52
2021/11/19 06:08:06;;;;;;;;;;;14.70;99.90;;;;;;5057554;28;986;-52
2021/11/19 06:10:33;;;;;;;;;;;14.70;99.90;;;;;;5057857;28;1304;-52
2021/11/19 06:13:05;;;;;;;;;;;14.70;99.90;;;;;;5058195;28;872;-52
2021/11/19 06:15:32;;;;;;;;;;;14.80;99.90;;;;;;5057008;28;920;-52
2021/11/19 06:18:00;;;;;;;;;;;14.80;99.90;;;;;;5056878;28;1902;-52
2021/11/19 06:20:30;;;;;;;;;;;14.80;99.90;;;;;;5058111;28;872;-52
2021/11/19 06:23:05;;;;;;;;;;;14.90;99.90;;;;;;5058559;28;810;-52
2021/11/19 06:25:32;;;;;;;;;;;14.90;99.90;;;;;;5058436;28;829;-52
2021/11/19 06:28:00;;;;;;;;;;;15.00;99.90;;;;;;5058505;28;810;-52
2021/11/19 06:30:27;;;;;;;;;;;15.00;99.90;;;;;;5057971;28;907;-52
2021/11/19 06:32:53;;;;;;;;;;;15.00;99.90;;;;;;5058952;28;789;-52
2021/11/19 06:35:19;;;;;;;;;;;15.00;99.90;;;;;;5058607;28;798;-52
2021/11/19 06:37:45;;;;;;;;;;;15.00;99.90;;;;;;5057379;28;1969;-52
2021/11/19 06:40:19;;;;;;;;;;;15.10;99.90;;;;;;5058298;28;990;-53
2021/11/19 06:42:46;;;;;;;;;;;15.00;99.90;;;;;;5058222;28;766;-53
2021/11/19 06:45:14;;;;;;;;;;;15.10;99.90;;;;;;5040069;28;953;-53
2021/11/19 06:47:43;;;;;;;;;;;15.10;99.90;;;;;;5057258;28;1208;-53
2021/11/19 06:50:11;;;;;;;;;;;15.10;99.90;;;;;;5058124;28;834;-53
2021/11/19 06:52:37;;;;;;;;;;;15.10;99.90;;;;;;5040009;28;1152;-58
2021/11/19 06:55:05;;;;;;;;;;;15.00;99.90;;;;;;5057015;28;865;-53
2021/11/19 06:57:31;;;;;;;;;;;15.10;99.90;;;;;;5057914;28;1906;-53
2021/11/19 06:59:56;;;;;;;;;;;15.10;99.90;;;;;;5057203;28;894;-53
2021/11/19 07:02:23;;;;;;;;;;;15.00;99.90;;;;;;5057547;28;965;-59
2021/11/19 07:04:49;;;;;;;;;;;15.00;99.90;;;;;;5057220;28;901;-59
2021/11/19 07:07:15;;;;;;;;;;;15.00;99.90;;;;;;5056558;28;888;-53
2021/11/19 07:09:41;;;;;;;;;;;15.00;99.90;;;;;;5056977;28;863;-53
2021/11/19 07:12:09;;;;;;;;;;;15.10;99.90;;;;;;5056406;28;1290;-53
2021/11/19 07:14:35;;;;;;;;;;;15.20;99.90;;;;;;5057343;28;829;-53
2021/11/19 07:17:04;;;;;;;;;;;15.40;99.90;;;;;;5057167;28;853;-53
2021/11/19 07:19:31;;;;;;;;;;;15.50;99.90;;;;;;5056435;28;1906;-53
2021/11/19 07:21:57;;;;;;;;;;;15.60;99.90;;;;;;5057212;28;833;-53
2021/11/19 07:24:26;;;;;;;;;;;15.80;99.90;;;;;;5057440;28;896;-53
2021/11/19 07:26:54;;;;;;;;;;;15.90;99.90;;;;;;5057123;28;802;-53
2021/11/19 07:29:21;;;;;;;;;;;16.00;99.90;;;;;;5057087;28;820;-53
2021/11/19 07:31:48;;;;;;;;;;;16.00;99.90;;;;;;5057000;28;792;-53
2021/11/19 07:34:14;;;;;;;;;;;16.10;99.90;;;;;;5039211;28;1011;-53
2021/11/19 07:36:41;;;;;;;;;;;16.20;99.90;;;;;;5056948;28;771;-58
2021/11/19 07:39:07;;;;;;;;;;;16.30;99.90;;;;;;5038701;28;1969;-58
2021/11/19 07:41:34;;;;;;;;;;;16.40;99.90;;;;;;5057033;28;970;-53
2021/11/19 07:44:00;;;;;;;;;;;16.40;99.90;;;;;;5056088;28;1459;-58
2021/11/19 07:46:27;;;;;;;;;;;16.40;99.90;;;;;;5056088;28;1119;-53
2021/11/19 07:48:54;;;;;;;;;;;16.50;99.90;;;;;;5056729;28;823;-53
2021/11/19 07:51:21;;;;;;;;;;;16.50;99.90;;;;;;5056975;28;979;-58
2021/11/19 07:53:48;;;;;;;;;;;16.50;99.90;;;;;;5056705;28;852;-58
2021/11/19 07:56:16;;;;;;;;;;;16.60;99.90;;;;;;5056176;28;866;-58
2021/11/19 07:58:42;;;;;;;;;;;16.60;99.90;;;;;;5055868;28;1965;-58
2021/11/19 08:01:09;;;;;;;;;;;16.70;99.90;;;;;;5053983;28;1136;-58
2021/11/19 08:03:34;;;;;;;;;;;16.70;99.90;;;;;;5055293;28;1547;-58
2021/11/19 08:06:02;;;;;;;;;;;16.70;99.90;;;;;;5055529;28;810;-53
2021/11/19 08:08:30;;;;;;;;;;;16.70;99.90;;;;;;5055903;28;1002;-58
2021/11/19 08:10:57;;;;;;;;;;;16.70;99.90;;;;;;5056386;28;754;-58
2021/11/19 08:13:23;;;;;;;;;;;16.80;99.90;;;;;;5056190;28;879;-58
2021/11/19 08:15:49;;;;;;;;;;;16.80;99.90;;;;;;5056167;28;839;-58
2021/11/19 08:18:21;;;;;;;;;;;16.80;99.90;;;;;;5050216;28;1969;-58
2021/11/19 08:20:48;;;;;;;;;;;16.80;99.90;;;;;;5056338;28;877;-58
2021/11/19 08:23:19;;;;;;;;;;;16.90;99.90;;;;;;5054435;28;924;-58
2021/11/19 08:25:46;;;;;;;;;;;16.90;99.90;;;;;;5054184;28;1242;-58
2021/11/19 08:28:12;;;;;;;;;;;16.90;99.90;;;;;;5055311;28;772;-58
2021/11/19 08:30:40;;;;;;;;;;;16.90;99.90;;;;;;5055711;28;780;-58
2021/11/19 08:33:07;;;;;;;;;;;17.00;99.90;;;;;;5050742;28;1354;-58
2021/11/19 08:35:35;;;;;;;;;;;17.00;99.90;;;;;;5050795;28;864;-58
2021/11/19 08:38:02;;;;;;;;;;;17.10;99.90;;;;;;5055429;28;1902;-58
2021/11/19 08:40:31;;;;;;;;;;;17.10;99.90;;;;;;5055909;28;785;-58
2021/11/19 08:42:58;;;;;;;;;;;17.10;99.90;;;;;;5055037;28;902;-59
2021/11/19 08:45:25;;;;;;;;;;;17.10;99.90;;;;;;5049968;28;1678;-58
2021/11/19 08:47:53;;;;;;;;;;;17.10;99.90;;;;;;5055026;28;1708;-58
2021/11/19 08:50:22;;;;;;;;;;;17.10;99.90;;;;;;5055506;28;1087;-58
2021/11/19 08:52:48;;;;;;;;;;;17.10;99.90;;;;;;5055535;28;1628;-58
2021/11/19 08:55:16;;;;;;;;;;;17.00;99.90;;;;;;5055587;28;866;-58
2021/11/19 08:57:44;;;;;;;;;;;17.00;99.90;;;;;;5054852;28;1910;-58
2021/11/19 09:00:13;;;;;;;;;;;17.00;99.90;;;;;;5055921;28;839;-58
2021/11/19 09:02:40;;;;;;;;;;;17.00;99.90;;;;;;5033237;28;835;-58
2021/11/19 09:05:09;;;;;;;;;;;17.00;99.90;;;;;;5055601;28;806;-58
2021/11/19 09:07:35;;;;;;;;;;;17.00;99.90;;;;;;5021092;28;923;-58
2021/11/19 09:10:03;;;;;;;;;;;17.00;99.90;;;;;;5055803;28;798;-58
2021/11/19 09:12:29;;;;;;;;;;;17.00;99.90;;;;;;5058829;28;922;-53
2021/11/19 09:14:55;;;;;;;;;;;17.10;99.90;;;;;;5059617;28;761;-53
2021/11/19 09:17:21;;;;;;;;;;;17.10;99.90;;;;;;5059140;28;1589;-53
2021/11/19 09:19:56;;;;;;;;;;;17.10;99.90;;;;;;5059077;28;1914;-53
2021/11/19 09:22:31;;;;;;;;;;;17.20;99.90;;;;;;5059724;28;904;-53
2021/11/19 09:25:00;;;;;;;;;;;17.20;99.90;;;;;;5059731;28;798;-53
2021/11/19 09:27:28;;;;;;;;;;;17.20;99.90;;;;;;5059364;28;966;-53
2021/11/19 09:30:00;;;;;;;;;;;17.20;99.90;;;;;;5059048;28;830;-53
2021/11/19 09:32:27;;;;;;;;;;;17.20;99.90;;;;;;5059076;28;791;-53
2021/11/19 09:34:55;;;;;;;;;;;17.20;99.90;;;;;;5041412;28;1245;-53
2021/11/19 09:37:21;;;;;;;;;;;17.20;99.90;;;;;;5058782;28;821;-54
2021/11/19 09:39:49;;;;;;;;;;;17.30;99.90;;;;;;5041213;28;1910;-52
2021/11/19 09:42:18;;;;;;;;;;;17.30;99.90;;;;;;5058730;28;908;-52
2021/11/19 09:44:54;;;;;;;;;;;17.30;99.90;;;;;;5058393;28;867;-53
2021/11/19 09:47:23;;;;;;;;;;;17.30;99.90;;;;;;5057926;28;991;-53
2021/11/19 09:50:01;;;;;;;;;;;17.30;99.90;;;;;;5059197;28;810;-52
2021/11/19 09:52:33;;;;;;;;;;;17.30;99.90;;;;;;5058887;28;1605;-52
2021/11/19 09:55:18;;;;;;;;;;;17.30;99.90;;;;;;5057111;28;1199;-52
2021/11/19 09:58:02;;;;;;;;;;;17.30;99.90;;;;;;5040944;28;941;-52
2021/11/19 10:00:42;;;;;;;;;;;17.30;99.90;;;;;;5058082;28;922;-53
2021/11/19 10:03:08;;;;;;;;;;;17.30;99.90;;;;;;5058739;28;801;-54
2021/11/19 10:05:38;;;;;;;;;;;17.40;99.90;;;;;;5058759;28;813;-53
2021/11/19 10:08:04;;;;;;;;;;;17.40;99.90;;;;;;5007886;28;1038;-54
2021/11/19 10:10:51;;;;;;;;;;;17.40;99.90;;;;;;5057858;28;1118;-53
2021/11/19 10:13:23;;;;;;;;;;;17.40;99.90;;;;;;5057753;28;949;-52
2021/11/19 10:16:08;;;;;;;;;;;17.40;99.90;;;;;;5058408;28;754;-52
2021/11/19 10:18:41;;;;;;;;;;;17.40;99.90;;;;;;5007297;28;1902;-52
2021/11/19 10:21:09;;;;;;;;;;;17.40;99.90;;;;;;5058393;28;764;-52
2021/11/19 10:23:39;;;;;;;;;;;17.40;99.90;;;;;;5023331;28;921;-52
2021/11/19 10:26:14;;;;;;;;;;;17.40;99.90;;;;;;5058222;28;971;-52
2021/11/19 10:28:59;;;;;;;;;;;17.40;99.90;;;;;;5058304;28;888;-52
2021/11/19 10:31:25;;;;;;;;;;;17.40;99.90;;;;;;5058076;28;801;-52
2021/11/19 10:34:11;;;;;;;;;;;17.40;99.90;;;;;;5058294;28;854;-52
2021/11/19 10:36:52;;;;;;;;;;;17.40;99.90;;;;;;5023556;28;998;-53
2021/11/19 10:39:41;;;;;;;;;;;17.40;99.90;;;;;;5057956;28;1985;-54
2021/11/19 10:42:16;;;;;;;;;;;17.40;99.90;;;;;;5057032;28;792;-53
2021/11/19 10:45:04;;;;;;;;;;;17.40;99.90;;;;;;5053392;28;895;-54
2021/11/19 10:47:39;;;;;;;;;;;17.40;99.90;;;;;;4967605;28;1226;-53
2021/11/19 10:50:24;;;;;;;;;;;17.30;99.90;;;;;;4972415;28;1318;-52
2021/11/19 10:53:09;;;;;;;;;;;17.40;99.90;;;;;;4976704;28;1558;-52
2021/11/19 10:55:42;;;;;;;;;;;17.30;99.90;;;;;;4976502;28;1546;-52
2021/11/19 10:58:28;;;;;;;;;;;17.40;99.90;;;;;;4974187;28;1965;-52
2021/11/19 11:00:58;;;;;;;;;;;17.50;99.90;;;;;;4960274;28;1537;-51
2021/11/19 11:03:29;;;;;;;;;;;17.50;99.90;;;;;;4975869;28;1344;-52
2021/11/19 11:05:57;;;;;;;;;;;17.60;99.90;;;;;;4976858;28;1310;-51
2021/11/19 11:08:25;;;;;;;;;;;17.80;99.90;;;;;;4976768;28;1352;-52
2021/11/19 11:11:10;;;;;;;;;;;17.80;99.90;;;;;;4976648;28;1443;-52
2021/11/19 11:13:36;;;;;;;;;;;17.90;99.90;;;;;;4976718;28;1603;-51
2021/11/19 11:16:07;;;;;;;;;;;18.00;99.90;;;;;;4976472;28;1499;-53
2021/11/19 11:18:53;;;;;;;;;;;18.30;99.90;;;;;;4975869;28;1973;-53
2021/11/19 11:21:28;;;;;;;;;;;18.50;99.90;;;;;;4976471;28;1646;-52
2021/11/19 11:23:57;;;;;;;;;;;18.50;99.90;;;;;;4988445;28;1562;-52
2021/11/19 11:26:37;;;;;;;;;;;18.50;99.90;;;;;;5034322;28;1426;-51
2021/11/19 11:29:09;;;;;;;;;;;18.40;99.90;;;;;;5036675;28;1459;-52
2021/11/19 11:31:54;;;;;;;;;;;18.30;99.90;;;;;;5036461;28;1517;-52
2021/11/19 11:34:42;;;;;;;;;;;18.20;99.90;;;;;;5035486;28;1458;-55
2021/11/19 11:37:35;;;;;;;;;;;18.20;99.90;;;;;;5034680;28;1411;-56
2021/11/19 11:40:07;;;;;;;;;;;18.20;99.90;;;;;;4954348;29;1972;-57
2021/11/19 11:42:38;;;;;;;;;;;18.20;99.90;;;;;;4956766;29;1491;-56
2021/11/19 11:45:22;;;;;;;;;;;18.20;99.90;;;;;;4956672;29;1357;-54
2021/11/19 11:48:07;;;;;;;;;;;18.20;99.90;;;;;;4956524;29;1650;-57
2021/11/19 11:50:54;;;;;;;;;;;18.20;99.90;;;;;;4952589;29;1393;-57
2021/11/19 11:53:23;;;;;;;;;;;18.30;99.90;;;;;;4956616;29;1523;-56
2021/11/19 11:56:14;;;;;;;;;;;18.30;99.90;;;;;;4956653;29;958;-56
2021/11/19 11:58:45;;;;;;;;;;;18.40;99.90;;;;;;4956741;29;1907;-57
2021/11/19 12:01:11;;;;;;;;;;;18.30;99.90;;;;;;4954748;29;1579;-56
2021/11/19 12:03:42;;;;;;;;;;;18.30;99.90;;;;;;4956035;29;1209;-56
2021/11/19 12:06:26;;;;;;;;;;;18.30;99.90;;;;;;4956907;29;861;-56
2021/11/19 12:08:53;;;;;;;;;;;18.30;99.90;;;;;;4956840;29;821;-56
2021/11/19 12:11:38;;;;;;;;;;;18.40;99.90;;;;;;4956724;29;961;-56
2021/11/19 12:14:17;;;;;;;;;;;18.40;99.90;;;;;;4924820;29;1431;-56
2021/11/19 12:16:59;;;;;;;;;;;18.40;99.90;;;;;;4983969;28;1143;-56
2021/11/19 12:19:33;;;;;;;;;;;18.40;99.90;;;;;;5055375;28;2004;-57
2021/11/19 12:22:19;;;;;;;;;;;18.40;99.90;;;;;;5055447;28;833;-56
2021/11/19 12:25:04;;;;;;;;;;;18.40;99.90;;;;;;5056364;28;837;-57
2021/11/19 12:27:37;;;;;;;;;;;18.50;99.90;;;;;;5053065;28;1101;-56
2021/11/19 12:30:19;;;;;;;;;;;18.50;99.90;;;;;;5055107;28;1170;-52
2021/11/19 12:32:51;;;;;;;;;;;18.60;99.90;;;;;;5056001;28;769;-52
2021/11/19 12:35:36;;;;;;;;;;;18.50;99.90;;;;;;5055311;28;870;-50
2021/11/19 12:38:06;;;;;;;;;;;18.20;99.90;;;;;;5055211;28;1012;-52
2021/11/19 12:40:45;;;;;;;;;;;17.70;99.90;;;;;;5055714;28;1882;-52
2021/11/19 12:43:11;;;;;;;;;;;17.40;99.90;;;;;;5053870;28;1257;-52
2021/11/19 12:45:39;;;;;;;;;;;17.20;99.90;;;;;;5054842;28;1197;-52
2021/11/19 12:48:25;;;;;;;;;;;17.10;99.90;;;;;;5055239;28;1434;-53
2021/11/19 12:51:15;;;;;;;;;;;17.00;99.90;;;;;;4987784;28;1338;-53
2021/11/19 12:54:07;;;;;;;;;;;17.00;99.90;;;;;;4988617;28;1437;-55
2021/11/19 12:56:39;;;;;;;;;;;17.20;99.90;;;;;;4977438;28;1385;-53
2021/11/19 12:59:04;;;;;;;;;;;17.40;99.90;;;;;;4992156;28;1906;-53
2021/11/19 13:01:33;;;;;;;;;;;17.60;99.90;;;;;;4991420;28;1179;-54
2021/11/19 13:04:15;;;;;;;;;;;17.70;99.90;;;;;;4989313;28;1416;-53
2021/11/19 13:07:00;;;;;;;;;;;17.80;99.90;;;;;;4987348;28;1484;-53
2021/11/19 13:09:32;;;;;;;;;;;18.00;99.90;;;;;;4988997;28;1505;-54
2021/11/19 13:12:16;;;;;;;;;;;18.20;99.90;;;;;;4991237;28;1261;-54
2021/11/19 13:14:45;;;;;;;;;;;18.40;99.90;;;;;;4989001;28;1238;-54
2021/11/19 13:17:15;;;;;;;;;;;18.50;99.90;;;;;;4990374;28;1242;-54
2021/11/19 13:19:41;;;;;;;;;;;18.50;99.90;;;;;;4991963;28;1910;-54
2021/11/19 13:22:10;;;;;;;;;;;18.60;99.90;;;;;;4993461;28;1178;-54
2021/11/19 13:24:39;;;;;;;;;;;18.70;99.90;;;;;;4989765;28;1425;-54
2021/11/19 13:27:08;;;;;;;;;;;18.70;99.90;;;;;;4986572;28;1305;-54
2021/11/19 13:29:37;;;;;;;;;;;18.70;99.90;;;;;;4989259;28;1266;-54
2021/11/19 13:32:18;;;;;;;;;;;18.80;99.90;;;;;;4993885;28;888;-54
2021/11/19 13:34:49;;;;;;;;;;;18.80;99.90;;;;;;5024576;28;1405;-56
2021/11/19 13:37:33;;;;;;;;;;;18.70;99.90;;;;;;5055362;28;832;-57
2021/11/19 13:43:13;;;;;;;;;;;18.40;99.90;;;;;;5048183;28;1118;-57
2021/11/19 13:45:43;;;;;;;;;;;18.20;99.90;;;;;;5054795;28;875;-56
2021/11/19 13:48:15;;;;;;;;;;;18.20;99.90;;;;;;5054299;28;1042;-56
2021/11/19 13:50:56;;;;;;;;;;;18.10;99.90;;;;;;5054710;28;908;-56
2021/11/19 13:53:46;;;;;;;;;;;18.00;99.90;;;;;;5054703;28;1609;-56
2021/11/19 13:56:20;;;;;;;;;;;18.00;99.90;;;;;;4974779;28;991;-56
2021/11/19 13:58:53;;;;;;;;;;;17.90;99.90;;;;;;4941679;28;1910;-57
2021/11/19 14:01:34;;;;;;;;;;;17.90;99.90;;;;;;4977960;28;942;-55
2021/11/19 14:04:03;;;;;;;;;;;17.80;99.90;;;;;;4978121;28;850;-57
2021/11/19 14:06:48;;;;;;;;;;;17.80;99.90;;;;;;4976737;28;1482;-57
2021/11/19 14:09:16;;;;;;;;;;;17.80;99.90;;;;;;4976167;28;1078;-58
2021/11/19 14:11:49;;;;;;;;;;;17.70;99.90;;;;;;4977594;28;899;-58
2021/11/19 14:14:17;;;;;;;;;;;17.70;99.90;;;;;;4977751;28;1210;-57
2021/11/19 14:16:56;;;;;;;;;;;17.60;99.90;;;;;;4976805;28;1444;-57
2021/11/19 14:21:57;;;;;;;;;;;17.60;99.90;;;;;;4965980;28;1977;-57
2021/11/19 14:22:19;;;;;;;;;;;17.60;99.90;;;;;;4961608;28;1057;-57
2021/11/19 14:25:01;;;;;;;;;;;17.60;99.90;;;;;;4977918;28;1119;-58
2021/11/19 14:27:31;;;;;;;;;;;17.60;99.90;;;;;;4973224;28;1033;-57
2021/11/19 14:30:16;;;;;;;;;;;17.60;99.90;;;;;;4977549;28;1285;-57
2021/11/19 14:32:50;;;;;;;;;;;17.60;99.90;;;;;;5000337;28;981;-57
2021/11/19 14:35:16;;;;;;;;;;;17.70;99.90;;;;;;5055620;28;1065;-58
2021/11/19 14:37:42;;;;;;;;;;;17.70;99.90;;;;;;5057071;28;1422;-58
2021/11/19 14:40:32;;;;;;;;;;;17.70;99.90;;;;;;5054904;28;1902;-58
2021/11/19 14:43:00;;;;;;;;;;;17.90;99.90;;;;;;5046754;28;1601;-58
2021/11/19 14:45:29;;;;;;;;;;;18.00;99.90;;;;;;5058160;28;905;-58
2021/11/19 14:47:59;;;;;;;;;;;18.10;99.90;;;;;;5057195;28;1358;-57
2021/11/19 14:53:14;;;;;;;;;;;18.10;99.90;;;;;;5057765;28;1641;-56
2021/11/19 14:55:46;;;;;;;;;;;18.20;99.90;;;;;;5038863;28;1206;-57
2021/11/19 14:58:27;;;;;;;;;;;18.20;99.90;;;;;;5056961;28;909;-58
2021/11/19 15:00:53;;;;;;;;;;;18.20;99.90;;;;;;5057360;28;1910;-56
2021/11/19 15:03:45;;;;;;;;;;;18.10;99.90;;;;;;5057372;28;858;-55
2021/11/19 15:06:40;;;;;;;;;;;18.10;99.90;;;;;;5043042;28;1437;-55